createdAt,value
2022-12-03T00:00:33.258Z,0.71
2022-12-03T00:05:53.188Z,0.76
2022-12-03T00:11:12.342Z,0.81
2022-12-03T00:16:32.068Z,0.82
2022-12-03T00:21:51.794Z,0.85
2022-12-03T00:27:11.252Z,0.91
2022-12-03T00:32:30.705Z,0.98
2022-12-03T00:37:58.713Z,1
2022-12-03T00:43:09.010Z,1.03
2022-12-03T00:48:28.283Z,1.03
2022-12-03T00:53:47.333Z,1.03
2022-12-03T00:59:14.021Z,1.02
2022-12-03T01:04:25.287Z,1.02
2022-12-03T01:09:44.618Z,1.02
2022-12-03T01:15:04.590Z,1
2022-12-03T01:20:24.354Z,1
2022-12-03T01:25:43.243Z,1
2022-12-03T01:31:02.158Z,1.03
2022-12-03T01:36:21.085Z,0.99
2022-12-03T01:41:40.416Z,1
2022-12-03T01:46:59.959Z,1.02
2022-12-03T01:52:19.469Z,1
2022-12-03T01:57:38.324Z,1
2022-12-03T02:02:57.375Z,1
2022-12-03T02:08:16.936Z,1.03
2022-12-03T02:13:35.612Z,1.02
2022-12-03T02:18:55.072Z,0.98
2022-12-03T02:24:14.680Z,0.98
2022-12-03T02:29:33.733Z,0.99
2022-12-03T02:34:53.731Z,0.98
2022-12-03T02:40:12.578Z,0.95
2022-12-03T02:45:40.836Z,0.99
2022-12-03T02:50:50.901Z,1.03
2022-12-03T02:56:10.239Z,1.04
2022-12-03T03:01:29.492Z,1.05
2022-12-03T03:06:48.537Z,1.03
2022-12-03T03:12:08.278Z,1.07
2022-12-03T03:17:27.485Z,1.05
2022-12-03T03:22:46.931Z,1.07
2022-12-03T03:28:06.568Z,1.1
2022-12-03T03:33:25.778Z,1.12
2022-12-03T03:38:45.513Z,1.13
2022-12-03T03:44:04.320Z,1.15
2022-12-03T03:49:24.057Z,1.15
2022-12-03T03:54:43.054Z,1.12
2022-12-03T04:00:02.089Z,1.15
2022-12-03T04:05:20.860Z,1.15
2022-12-03T04:10:39.728Z,1.13
2022-12-03T04:15:59.477Z,1.12
2022-12-03T04:21:28.416Z,1.15
2022-12-03T04:26:38.127Z,1.15
2022-12-03T04:31:57.815Z,1.15
2022-12-03T04:37:17.550Z,1.15
2022-12-03T04:42:37.339Z,1.16
2022-12-03T04:47:56.367Z,1.22
2022-12-03T04:53:15.504Z,1.22
2022-12-03T04:58:35.041Z,1.23
2022-12-03T05:03:53.932Z,1.25
2022-12-03T05:09:13.094Z,1.25
2022-12-03T05:14:42.977Z,1.26
2022-12-03T05:19:51.853Z,1.27
2022-12-03T05:25:20.099Z,1.25
2022-12-03T05:30:30.268Z,1.25
2022-12-03T05:35:49.554Z,1.29
2022-12-03T05:41:08.909Z,1.27
2022-12-03T05:46:29.017Z,1.32
2022-12-03T05:51:48.119Z,1.33
2022-12-03T05:57:08.038Z,1.33
2022-12-03T06:02:27.209Z,1.33
2022-12-03T06:07:46.219Z,1.35
2022-12-03T06:13:05.981Z,1.36
2022-12-03T06:18:25.274Z,1.36
2022-12-03T06:23:44.300Z,1.33
2022-12-03T06:29:03.532Z,1.4
2022-12-03T06:34:31.291Z,1.4
2022-12-03T06:39:51.918Z,1.39
2022-12-03T06:45:02.364Z,1.39
2022-12-03T06:50:21.318Z,1.43
2022-12-03T06:55:40.203Z,1.43
2022-12-03T07:00:59.572Z,1.43
2022-12-03T07:06:18.721Z,1.44
2022-12-03T07:11:38.594Z,1.47
2022-12-03T07:16:57.410Z,1.47
2022-12-03T07:22:16.689Z,1.5
2022-12-03T07:27:35.929Z,1.53
2022-12-03T07:32:54.764Z,1.54
2022-12-03T07:38:14.157Z,1.57
2022-12-03T07:43:33.990Z,1.58
2022-12-03T07:48:53.685Z,1.6
2022-12-03T07:54:12.442Z,1.68
2022-12-03T07:59:31.287Z,1.7
2022-12-03T08:04:58.838Z,1.74
2022-12-03T08:10:18.931Z,1.75
2022-12-03T08:15:33.767Z,1.75
2022-12-03T08:20:48.930Z,1.78
2022-12-03T08:26:08.325Z,1.75
2022-12-03T08:31:33.069Z,1.81
2022-12-03T08:36:46.865Z,1.84
2022-12-03T08:42:10.682Z,1.93
2022-12-03T08:47:26.452Z,1.94
2022-12-03T08:52:45.675Z,1.97
2022-12-03T08:58:05.375Z,1.99
2022-12-03T09:03:25.003Z,2.04
2022-12-03T09:08:43.916Z,2.08
2022-12-03T09:14:03.564Z,2.11
2022-12-03T09:19:31.403Z,2.16
2022-12-03T09:24:41.335Z,2.19
2022-12-03T09:30:08.841Z,2.25
2022-12-03T09:35:19.911Z,2.26
2022-12-03T09:40:38.974Z,2.33
2022-12-03T09:45:58.572Z,2.34
2022-12-03T09:51:18.043Z,2.42
2022-12-03T09:56:37.511Z,2.5
2022-12-03T10:01:56.574Z,2.53
2022-12-03T10:07:15.570Z,2.53
2022-12-03T10:12:35.350Z,2.61
2022-12-03T10:17:55.094Z,2.67
2022-12-03T10:23:14.475Z,2.67
2022-12-03T10:28:33.492Z,2.66
2022-12-03T10:33:52.800Z,2.68
2022-12-03T10:39:11.998Z,2.76
2022-12-03T10:44:30.909Z,2.8
2022-12-03T10:49:50.050Z,2.84
2022-12-03T10:55:42.068Z,2.84
2022-12-03T11:01:01.546Z,2.88
2022-12-03T11:06:20.711Z,2.93
2022-12-03T11:11:40.443Z,3.04
2022-12-03T11:17:00.155Z,3.15
2022-12-03T11:22:19.590Z,3.12
2022-12-03T11:27:39.137Z,3.07
2022-12-03T11:32:58.051Z,2.98
2022-12-03T11:38:17.054Z,3.03
2022-12-03T11:43:36.834Z,3.01
2022-12-03T11:48:56.136Z,2.97
2022-12-03T11:54:15.753Z,2.94
2022-12-03T11:59:35.525Z,2.88
2022-12-03T12:04:54.581Z,2.83
2022-12-03T12:10:12.428Z,2.77
2022-12-03T12:15:31.617Z,2.72
2022-12-03T12:20:50.949Z,2.7
2022-12-03T12:26:09.946Z,2.63
2022-12-03T12:31:29.607Z,2.59
2022-12-03T12:36:48.340Z,2.56
2022-12-03T12:42:08.381Z,2.54
2022-12-03T12:47:27.406Z,2.49
2022-12-03T12:52:46.947Z,2.49
2022-12-03T12:58:07.411Z,2.45
2022-12-03T13:03:26.448Z,2.4
2022-12-03T13:08:46.119Z,2.4
2022-12-03T13:14:05.213Z,2.4
2022-12-03T13:19:24.513Z,2.4
2022-12-03T13:24:53.304Z,2.36
2022-12-03T13:30:02.765Z,2.34
2022-12-03T13:35:22.177Z,2.32
2022-12-03T13:40:41.432Z,2.32
2022-12-03T13:46:00.532Z,2.3
2022-12-03T13:51:20.290Z,2.32
2022-12-03T13:56:39.620Z,2.32
2022-12-03T14:01:58.778Z,2.28
2022-12-03T14:07:17.811Z,2.28
2022-12-03T14:12:36.887Z,2.25
2022-12-03T14:17:55.740Z,2.24
2022-12-03T14:23:15.558Z,2.24
2022-12-03T14:28:35.058Z,2.22
2022-12-03T14:33:53.850Z,2.18
2022-12-03T14:39:12.725Z,2.16
2022-12-03T14:44:32.047Z,2.1
2022-12-03T14:49:51.945Z,2.08
2022-12-03T14:55:10.477Z,2.08
2022-12-03T15:00:37.135Z,2.08
2022-12-03T15:05:48.568Z,2.08
2022-12-03T15:11:08.116Z,2.06
2022-12-03T15:16:27.428Z,2.05
2022-12-03T15:21:46.452Z,2.05
2022-12-03T15:27:05.987Z,2.02
2022-12-03T15:32:25.085Z,1.98
2022-12-03T15:37:44.042Z,1.98
2022-12-03T15:43:03.632Z,1.97
2022-12-03T15:48:23.413Z,1.97
2022-12-03T15:53:42.450Z,1.98
2022-12-03T15:59:01.701Z,1.94
2022-12-03T16:04:20.648Z,1.94
2022-12-03T16:09:40.086Z,1.91
2022-12-03T16:14:59.693Z,1.91
2022-12-03T16:20:19.313Z,1.88
2022-12-03T16:25:39.058Z,1.87
2022-12-03T16:30:58.191Z,1.84
2022-12-03T16:36:17.935Z,1.82
2022-12-03T16:41:37.494Z,1.85
2022-12-03T16:46:56.385Z,1.81
2022-12-03T16:52:15.401Z,1.82
2022-12-03T16:57:34.969Z,1.81
2022-12-03T17:02:54.410Z,1.78
2022-12-03T17:08:13.342Z,1.78
2022-12-03T17:13:32.288Z,1.81
2022-12-03T17:18:51.357Z,1.79
2022-12-03T17:24:10.748Z,1.78
2022-12-03T17:29:30.511Z,1.75
2022-12-03T17:34:49.895Z,1.77
2022-12-03T17:40:09.202Z,1.75
2022-12-03T17:45:36.129Z,1.77
2022-12-03T17:50:47.890Z,1.77
2022-12-03T17:56:15.660Z,1.73
2022-12-03T18:01:26.343Z,1.73
2022-12-03T18:06:45.985Z,1.68
2022-12-03T18:12:05.081Z,1.64
2022-12-03T18:17:24.267Z,1.63
2022-12-03T18:22:43.110Z,1.58
2022-12-03T18:28:02.190Z,1.54
2022-12-03T18:33:21.705Z,1.48
2022-12-03T18:38:41.463Z,1.46
2022-12-03T18:44:08.725Z,1.43
2022-12-03T18:49:19.524Z,1.46
2022-12-03T18:59:58.951Z,1.43
2022-12-03T19:05:18.545Z,1.46
2022-12-03T19:10:37.359Z,1.4
2022-12-03T19:15:57.033Z,1.42
2022-12-03T19:21:16.360Z,1.37
2022-12-03T19:26:35.869Z,1.35
2022-12-03T19:31:55.442Z,1.33
2022-12-03T19:37:13.995Z,1.29
2022-12-03T19:42:33.455Z,1.27
2022-12-03T19:47:52.712Z,1.27
2022-12-03T19:53:12.127Z,1.23
2022-12-03T19:58:39.122Z,1.2
2022-12-03T20:03:50.180Z,1.19
2022-12-03T20:09:09.698Z,1.16
2022-12-03T20:14:28.529Z,1.1
2022-12-03T20:19:47.540Z,1.09
2022-12-03T20:25:07.078Z,1.05
2022-12-03T20:30:26.017Z,1.04
2022-12-03T20:35:45.702Z,1.04
2022-12-03T20:41:05.434Z,1
2022-12-03T20:46:33.401Z,1
2022-12-03T20:51:43.644Z,0.98
2022-12-03T20:57:02.205Z,1
2022-12-03T21:02:21.559Z,0.98
2022-12-03T21:07:40.314Z,0.95
2022-12-03T21:13:08.999Z,0.93
2022-12-03T21:18:19.239Z,0.96
2022-12-03T21:23:38.169Z,0.98
2022-12-03T21:28:58.127Z,0.96
2022-12-03T21:34:17.328Z,0.95
2022-12-03T21:39:36.125Z,0.96
2022-12-03T21:50:14.238Z,0.98
2022-12-03T21:55:33.400Z,0.99
2022-12-03T22:00:52.421Z,0.96
2022-12-03T22:06:12.126Z,1
2022-12-03T22:11:31.631Z,1
2022-12-03T22:16:51.049Z,1
2022-12-03T22:22:10.415Z,1
2022-12-03T22:27:29.490Z,1
2022-12-03T22:32:48.488Z,1.05
2022-12-03T22:38:08.310Z,1.09
2022-12-03T22:43:27.396Z,1.09
2022-12-03T22:48:46.484Z,1.1
2022-12-03T22:54:05.753Z,1.15
2022-12-03T22:59:25.247Z,1.16
2022-12-03T23:04:44.825Z,1.16
2022-12-03T23:10:04.679Z,1.16
2022-12-03T23:15:24.819Z,1.19
2022-12-03T23:20:44.035Z,1.19
2022-12-03T23:26:02.739Z,1.2
2022-12-03T23:31:22.513Z,1.23
2022-12-03T23:36:41.404Z,1.25
2022-12-03T23:42:00.411Z,1.29
2022-12-03T23:47:20.144Z,1.32
2022-12-03T23:52:39.496Z,1.32
2022-12-03T23:57:58.920Z,1.37
